Flight Track Log - Related Links

Times and Time Zones

All times are in EDT time to prevent confusion due to time zone crossing. See the N273SK flight status page for this flight to view local times or setup timezone preferences in your user account.

Time Position Orientation Groundspeed Altitude Reporting Facility
EDT Latitude Longitude Course Direction KTS MPH feet Rate Location/Type
Tue 08:43:36 PM 35.0333 -89.9667 345° North 170 196 900  Level KMEM
Tue 08:44:36 PM 34.9833 -89.9667 180° South 154 177 2,900 1,632 Climbing KMEM
Tue 08:45:30 PM 34.9500 -89.9333 141° Southeast 245 282 4,000 1,792 Climbing KMEM
Tue 08:46:00 PM 35.0489 -89.7500 North  Level FlightAware Approximate
Tue 08:47:00 PM 35.1717 -89.7500 North  Level FlightAware Approximate
Tue 08:47:00 PM 35.0333 -89.8500 39° Northeast 308 354 7,200  Level KMEM
Tue 08:47:36 PM 35.0833 -89.8333 15° North 306 352 8,600 2,283 Climbing KMEM
Tue 08:48:00 PM 35.2931 -89.7644 345° North  Level FlightAware Approximate
Tue 08:48:53 PM 35.1769 -89.7803 25° Northeast 321 369 11,500  Level Memphis Center
Tue 08:49:53 PM 35.2561 -89.7342 25° Northeast 304 350 12,500 1,000 Climbing Memphis Center
Tue 08:50:53 PM 35.3456 -89.6850 24° Northeast 324 373 13,500 950 Climbing Memphis Center
Tue 08:51:53 PM 35.4411 -89.6308 25° Northeast 362 417 14,400 900 Climbing Memphis Center
Tue 08:52:53 PM 35.5431 -89.5736 25° Northeast 385 443 15,300 900 Climbing Memphis Center
Tue 08:53:53 PM 35.6447 -89.5164 25° Northeast 396 456 16,200 950 Climbing Memphis Center
Tue 08:54:53 PM 35.7381 -89.4464 31° Northeast 391 450 17,200 1,000 Climbing Memphis Center
Tue 08:55:53 PM 35.8336 -89.3739 32° Northeast 391 450 18,200 1,100 Climbing Memphis Center
Tue 08:56:53 PM 35.9311 -89.3033 30° Northeast 398 458 19,400 1,200 Climbing Memphis Center
Tue 08:57:53 PM 36.0303 -89.2278 32° Northeast 398 458 20,600 1,150 Climbing Memphis Center
Tue 08:58:53 PM 36.1297 -89.1544 31° Northeast 403 464 21,700 1,150 Climbing Memphis Center
Tue 08:59:53 PM 36.2292 -89.0783 32° Northeast 409 471 22,900 1,200 Climbing Memphis Center
Tue 09:00:53 PM 36.3283 -89.0019 32° Northeast 409 471 24,100 1,050 Climbing Memphis Center
Tue 09:01:53 PM 36.4297 -88.9256 31° Northeast 416 479 25,000 450 Climbing Memphis Center
Tue 09:02:53 PM 36.5350 -88.8486 30° Northeast 421 484 25,000  Level Memphis Center
Tue 09:03:53 PM 36.6444 -88.7664 31° Northeast 438 504 25,000  Level Memphis Center
Tue 09:04:53 PM 36.7558 -88.6839 31° Northeast 454 522 25,000  Level Memphis Center
Tue 09:05:53 PM 36.8714 -88.5961 31° Northeast 468 539 25,000  Level Memphis Center
Tue 09:06:53 PM 36.9828 -88.5078 32° Northeast 468 539 25,000  Level Memphis Center
Tue 09:07:53 PM 37.0917 -88.4142 34° Northeast 468 539 25,000  Level Memphis Center
Tue 09:10:17 PM 37.2878 -88.0939 52° Northeast 486 559 25,000  Level Indianapolis Center
Tue 09:11:19 PM 37.3708 -87.9561 53° Northeast 487 560 25,000  Level Indianapolis Center
Tue 09:12:20 PM 37.4528 -87.8222 52° Northeast 482 555 25,000 -197 Level Indianapolis Center
Tue 09:13:21 PM 37.5342 -87.6858 53° Northeast 481 554 24,600 -492 Descending Indianapolis Center
Tue 09:14:22 PM 37.6156 -87.5525 52° Northeast 476 548 24,000 -541 Descending Indianapolis Center
Tue 09:15:23 PM 37.6950 -87.4194 53° Northeast 471 542 23,500 -492 Descending Indianapolis Center
Tue 09:16:24 PM 37.7753 -87.2844 53° Northeast 474 545 23,000 -246 Descending Indianapolis Center
Tue 09:17:25 PM 37.8458 -87.1567 55° Northeast 454 522 23,000 -639 Level Indianapolis Center
Tue 09:18:26 PM 37.8442 -86.9936 91° East 468 539 21,700 -1,328 Descending Indianapolis Center
Tue 09:19:27 PM 37.8336 -86.8342 95° East 464 534 20,300 -1,328 Descending Indianapolis Center
Tue 09:20:28 PM 37.8247 -86.6797 94° East 448 516 19,000 -1,230 Descending Indianapolis Center
Tue 09:21:29 PM 37.8147 -86.5258 95° East 443 510 17,800 -1,082 Descending Indianapolis Center
Tue 09:22:30 PM 37.8256 -86.3739 85° East 436 502 16,800 -1,473 Descending Indianapolis Center
Tue 09:23:19 PM 37.8522 -86.2361 76° East 434 499 15,100 -2,000 Descending FAA TRACON SMA TRACON (SMA)
Tue 09:23:39 PM 37.8614 -86.1922 75° East 425 489 14,500 -2,100 Descending FAA TRACON SMA TRACON (SMA)
Tue 09:23:59 PM 37.8728 -86.1389 75° East 412 474 13,700 -2,100 Descending FAA TRACON SMA TRACON (SMA)
Tue 09:24:19 PM 37.8811 -86.0961 76° East 407 468 13,100 -1,950 Descending FAA TRACON SMA TRACON (SMA)
Tue 09:24:39 PM 37.8922 -86.0431 75° East 405 466 12,400 -1,950 Descending FAA TRACON SMA TRACON (SMA)
Tue 09:24:59 PM 37.9008 -86.0003 76° East 408 470 11,800 -1,692 Descending FAA TRACON SMA TRACON (SMA)
Tue 09:25:18 PM 37.9097 -85.9597 74° East 399 459 11,300 -1,800 Descending FAA TRACON SMA TRACON (SMA)
Tue 09:25:39 PM 37.9225 -85.9103 72° East 385 443 10,600 -1,463 Descending FAA TRACON SMA TRACON (SMA)
Tue 09:25:59 PM 37.9286 -85.8725 78° East 368 423 10,300 -750 Descending FAA TRACON SMA TRACON (SMA)
Tue 09:26:19 PM 37.9306 -85.8364 86° East 347 399 10,100 -750 Descending FAA TRACON SMA TRACON (SMA)
Tue 09:26:39 PM 37.9278 -85.7939 95° East 322 371 9,800 -1,200 Descending FAA TRACON SMA TRACON (SMA)
Tue 09:26:59 PM 37.9206 -85.7631 107° East 305 351 9,300 -1,800 Descending FAA TRACON SMA TRACON (SMA)
Tue 09:27:19 PM 37.9153 -85.7306 102° East 306 352 8,600 -1,950 Descending FAA TRACON SMA TRACON (SMA)
Tue 09:27:39 PM 37.9217 -85.6897 79° East 312 359 8,000 -1,200 Descending FAA TRACON SMA TRACON (SMA)
Tue 09:27:59 PM 37.9394 -85.6678 44° Northeast 313 360 7,800 -1,200 Descending FAA TRACON SMA TRACON (SMA)
Tue 09:28:19 PM 37.9619 -85.6572 20° North 290 334 7,200 -2,100 Descending FAA TRACON SMA TRACON (SMA)
Tue 09:28:39 PM 37.9906 -85.6567 North 272 313 6,400 -2,400 Descending FAA TRACON SMA TRACON (SMA)
Tue 09:28:59 PM 38.0100 -85.6664 338° Northwest 257 296 5,600 -2,700 Descending FAA TRACON SMA TRACON (SMA)
Tue 09:29:19 PM 38.0286 -85.6783 333° Northwest 244 281 4,600 -3,300 Descending FAA TRACON SMA TRACON (SMA)
Tue 09:29:39 PM 38.0525 -85.6878 343° North 236 272 3,400 -3,600 Descending FAA TRACON SMA TRACON (SMA)

Login

Don't have an account? Register now (free) for customized features, flight alerts, and more!